Flight Track Log - Related Links

Times and Time Zones

All times are in EDT time to prevent confusion due to time zone crossing. See the UAL780 flight status page for this flight to view local times or setup timezone preferences in your user account.

Time Position Orientation Groundspeed Altitude Reporting Facility
EDT Latitude Longitude Course Direction KTS MPH feet Rate Location/Type
Mon 04:09:31 PM 33.9167 -118.4667 107° East 201 231 2,100  Level Southern California TRACON
Mon 04:10:16 PM 33.8858 -118.5042 225° Southwest 230 265 3,800 2,355 Climbing Los Angeles Center
Mon 04:11:18 PM 33.8031 -118.5153 186° South 284 327 6,300 2,613 Climbing Los Angeles Center
Mon 04:12:00 PM 33.6735 -118.5002 126° Southeast  Level FlightAware Approximate
Mon 04:12:20 PM 33.7217 -118.5192 182° South 299 344 9,200  Level Los Angeles Center
Mon 04:13:00 PM 33.5932 -118.3831 134° Southeast  Level FlightAware Approximate
Mon 04:13:22 PM 33.6547 -118.4572 142° Southeast 332 382 11,100  Level Los Angeles Center
Mon 04:14:00 PM 33.5375 -118.2501 107° East  Level FlightAware Approximate
Mon 04:14:25 PM 33.5914 -118.3692 131° Southeast 354 407 13,600  Level Los Angeles Center
Mon 04:15:27 PM 33.5347 -118.2447 119° Southeast 372 428 15,900 1,887 Climbing Los Angeles Center
Mon 04:16:29 PM 33.5017 -118.1217 108° East 390 449 17,500 1,790 Climbing Los Angeles Center
Mon 04:17:31 PM 33.4669 -117.9944 108° East 404 465 19,600 1,742 Climbing Los Angeles Center
Mon 04:18:33 PM 33.4308 -117.8647 108° East 411 473 21,100 1,500 Climbing Los Angeles Center
Mon 04:19:35 PM 33.3925 -117.7331 109° East 420 483 22,700 1,548 Climbing Los Angeles Center
Mon 04:20:37 PM 33.3472 -117.5686 108° East 435 501 24,300 1,306 Climbing Los Angeles Center
Mon 04:21:39 PM 33.3069 -117.4286 109° East 445 512 25,400 1,065 Climbing Los Angeles Center
Mon 04:22:41 PM 33.2661 -117.2831 109° East 461 531 26,500 1,210 Climbing Los Angeles Center
Mon 04:23:43 PM 33.2211 -117.1169 108° East 469 540 27,900 1,104 Climbing Los Angeles Center
Mon 04:24:46 PM 33.1786 -116.9675 109° East 474 545 28,800 1,008 Climbing Los Angeles Center
Mon 04:25:48 PM 33.1336 -116.8136 109° East 487 560 30,000 1,065 Climbing Los Angeles Center
Mon 04:26:50 PM 33.0894 -116.6608 109° East 488 562 31,000 1,113 Climbing Los Angeles Center
Mon 04:27:52 PM 33.0431 -116.4972 109° East 489 563 32,300 1,016 Climbing Los Angeles Center
Mon 04:28:54 PM 33.0056 -116.3436 106° East 486 559 33,100 629 Climbing Los Angeles Center
Mon 04:29:56 PM 32.9917 -116.1822 96° East 489 563 33,600 581 Climbing Los Angeles Center
Mon 04:30:58 PM 32.9750 -116.0189 97° East 494 568 34,300 629 Climbing Los Angeles Center
Mon 04:32:00 PM 32.9558 -115.8236 97° East 492 566 34,900 290 Climbing Los Angeles Center
Mon 04:33:02 PM 32.9397 -115.6625 97° East 490 564 34,900  Level Los Angeles Center
Mon 04:34:04 PM 32.9247 -115.4992 96° East 495 570 34,900  Level Los Angeles Center
Mon 04:35:07 PM 32.9036 -115.3400 99° East 489 563 34,900  Level Los Angeles Center
Mon 04:36:09 PM 32.8756 -115.1811 102° East 491 565 34,900  Level Los Angeles Center
Mon 04:37:11 PM 32.8472 -115.0231 102° East 487 560 34,900  Level Los Angeles Center
Mon 04:38:13 PM 32.8131 -114.8325 102° East 489 563 34,900 48 Level Los Angeles Center
Mon 04:39:15 PM 32.7825 -114.6750 103° East 487 560 35,000  Climbing Los Angeles Center
Mon 04:40:17 PM 32.7692 -114.5133 96° East 491 565 34,900 -48 Descending Los Angeles Center
Mon 04:41:19 PM 32.7742 -114.3506 88° East 490 564 34,900  Level Los Angeles Center
Mon 04:42:21 PM 32.7756 -114.1883 89° East 491 565 34,900  Level Los Angeles Center
Mon 04:43:23 PM 32.7786 -113.9922 89° East 494 568 34,900  Level Los Angeles Center
Mon 04:44:25 PM 32.7994 -113.8303 81° East 493 567 34,900  Level Los Angeles Center
Mon 04:45:28 PM 32.8211 -113.6686 81° East 496 571 34,900  Level Los Angeles Center
Mon 04:46:30 PM 32.8431 -113.5067 81° East 496 571 34,900  Level Los Angeles Center
Mon 04:46:49 PM 32.8497 -113.4633 80° East 497 572 34,900  Level Albuquerque Center
Mon 04:47:51 PM 32.8711 -113.3011 81° East 495 570 34,900  Level Albuquerque Center
Mon 04:48:53 PM 32.8981 -113.1058 81° East 495 570 34,900  Level Albuquerque Center
Mon 04:49:55 PM 32.9217 -112.9403 80° East 500 575 34,900  Level Albuquerque Center
Mon 04:50:57 PM 32.9425 -112.7744 81° East 502 578 34,900  Level Albuquerque Center
Mon 04:51:59 PM 32.9344 -112.6092 93° East 504 580 34,900  Level Albuquerque Center
Mon 04:53:00 PM 32.9092 -112.4456 100° East 500 575 34,900  Level Albuquerque Center
Mon 04:54:02 PM 32.8839 -112.2825 100° East 500 575 34,900  Level Albuquerque Center
Mon 04:55:04 PM 32.8572 -112.0981 100° East 499 574 34,900 48 Level Albuquerque Center
Mon 04:56:06 PM 32.8322 -111.9358 100° East 501 577 35,000 48 Climbing Albuquerque Center
Mon 04:57:08 PM 32.8058 -111.7697 101° East 510 587 35,000  Level Albuquerque Center
Mon 04:58:10 PM 32.7811 -111.6058 100° East 507 583 35,000  Level Albuquerque Center
Mon 04:59:12 PM 32.7547 -111.4406 101° East 512 589 35,000  Level Albuquerque Center
Mon 05:00:14 PM 32.7272 -111.2758 101° East 512 589 35,000  Level Albuquerque Center
Mon 05:01:15 PM 32.6961 -111.0792 101° East 509 586 35,000  Level Albuquerque Center
Mon 05:02:17 PM 32.6689 -110.9142 101° East 510 587 35,000  Level Albuquerque Center
Mon 05:03:19 PM 32.6414 -110.7494 101° East 511 588 35,000  Level Albuquerque Center
Mon 05:04:21 PM 32.6147 -110.5856 101° East 510 587 35,000  Level Albuquerque Center
Mon 05:05:23 PM 32.5867 -110.4203 101° East 511 588 35,000  Level Albuquerque Center
Mon 05:06:24 PM 32.5569 -110.2492 102° East 508 585 35,000  Level Albuquerque Center
Mon 05:07:26 PM 32.5292 -110.0864 101° East 509 586 35,000  Level Albuquerque Center
Mon 05:08:28 PM 32.4961 -109.8917 101° East 510 587 35,000  Level Albuquerque Center
Mon 05:09:30 PM 32.4681 -109.7300 102° East 508 585 35,000 145 Level Albuquerque Center
Mon 05:10:32 PM 32.4369 -109.5661 103° East 514 592 35,300 488 Climbing Albuquerque Center
Mon 05:11:33 PM 32.4092 -109.4028 101° East 513 590 36,000 488 Climbing Albuquerque Center
Mon 05:12:35 PM 32.3794 -109.2394 102° East 516 594 36,300 484 Climbing Albuquerque Center
Mon 05:13:37 PM 32.3447 -109.0403 102° East 523 602 37,000 339 Climbing Albuquerque Center
Mon 05:14:39 PM 32.3153 -108.8781 102° East 517 595 37,000  Level Albuquerque Center
Mon 05:15:41 PM 32.2850 -108.7133 102° East 519 597 37,000  Level Albuquerque Center
Mon 05:16:42 PM 32.2544 -108.5486 102° East 521 600 37,000  Level Albuquerque Center
Mon 05:17:44 PM 32.2189 -108.3544 102° East 522 601 37,000 -48 Level Albuquerque Center
Mon 05:18:46 PM 32.1878 -108.1894 103° East 520 598 36,900 -48 Descending Albuquerque Center
Mon 05:19:48 PM 32.1567 -108.0258 103° East 516 594 36,900  Level Albuquerque Center
Mon 05:20:49 PM 32.1250 -107.8617 103° East 516 594 36,900 49 Level Albuquerque Center
Mon 05:21:51 PM 32.0944 -107.6981 102° East 515 593 37,000 48 Climbing Albuquerque Center
Mon 05:22:53 PM 32.0642 -107.5347 102° East 516 594 37,000 -48 Level Albuquerque Center
Mon 05:23:55 PM 32.0269 -107.3403 103° East 514 592 36,900 -48 Descending Albuquerque Center
Mon 05:24:57 PM 31.9964 -107.1789 103° East 512 589 36,900  Level Albuquerque Center
Mon 05:25:58 PM 31.9650 -107.0183 103° East 510 587 36,900  Level Albuquerque Center
Mon 05:27:00 PM 31.9333 -106.8572 103° East 509 586 36,900 48 Level Albuquerque Center
Mon 05:28:02 PM 31.9008 -106.6944 103° East 514 592 37,000 48 Climbing Albuquerque Center
Mon 05:29:04 PM 31.8608 -106.5042 104° East 515 593 37,000 -49 Level Albuquerque Center
Mon 05:30:05 PM 31.8289 -106.3389 103° East 518 596 36,900 -49 Descending Albuquerque Center
Mon 05:31:07 PM 31.8031 -106.1736 100° East 513 590 36,900  Level Albuquerque Center
Mon 05:32:09 PM 31.7828 -106.0083 98° East 510 587 36,900  Level Albuquerque Center
Mon 05:33:11 PM 31.7625 -105.8436 98° East 510 587 36,900  Level Albuquerque Center
Mon 05:34:13 PM 31.7431 -105.6800 98° East 507 583 36,900  Level Albuquerque Center
Mon 05:35:14 PM 31.7186 -105.4814 98° East 511 588 36,900  Level Albuquerque Center
Mon 05:36:16 PM 31.6986 -105.3150 98° East 512 589 36,900 48 Level Albuquerque Center
Mon 05:37:18 PM 31.6778 -105.1514 98° East 507 583 37,000  Climbing Albuquerque Center
Mon 05:38:20 PM 31.6578 -104.9825 98° East 513 590 36,900  Descending Albuquerque Center
Mon 05:39:21 PM 31.6489 -104.8133 93° East 516 594 37,000  Climbing Albuquerque Center
Mon 05:40:23 PM 31.6425 -104.6453 93° East 516 594 36,900 -48 Descending Albuquerque Center
Mon 05:41:25 PM 31.6361 -104.4775 93° East 515 593 36,900  Level Albuquerque Center
Mon 05:42:27 PM 31.6333 -104.3086 91° East 516 594 36,900 49 Level Albuquerque Center
Mon 05:43:28 PM 31.6325 -104.1417 90° East 514 592 37,000  Climbing Albuquerque Center
Mon 05:44:30 PM 31.6283 -103.9394 91° East 515 593 36,900 -48 Descending Albuquerque Center
Mon 05:45:32 PM 31.6261 -103.7714 91° East 515 593 36,900 49 Level Albuquerque Center
Mon 05:46:33 PM 31.6217 -103.6167 92° East 512 589 37,000  Climbing Albuquerque Center
Mon 05:47:35 PM 31.6172 -103.4408 92° East 511 588 36,900 -48 Descending Albuquerque Center
Mon 05:48:37 PM 31.6131 -103.2739 92° East 512 589 36,900  Level Albuquerque Center
Mon 05:49:39 PM 31.6078 -103.1075 92° East 510 587 36,900  Level Albuquerque Center
Mon 05:50:40 PM 31.6036 -102.9089 91° East 508 585 36,900 49 Level Albuquerque Center
Mon 05:51:42 PM 31.6008 -102.7417 91° East 510 587 37,000  Climbing Albuquerque Center
Mon 05:52:44 PM 31.5906 -102.5778 94° East 505 581 36,900 -49 Descending Albuquerque Center
Mon 05:53:45 PM 31.5747 -102.4125 96° East 507 583 36,900  Level Albuquerque Center
Mon 05:54:47 PM 31.5572 -102.2442 97° East 511 588 36,900  Level Albuquerque Center
Mon 05:55:49 PM 31.5422 -102.0764 96° East 514 592 36,900  Level Albuquerque Center
Mon 05:56:51 PM 31.5231 -101.9094 98° East 513 590 36,900  Level Albuquerque Center
Mon 05:57:52 PM 31.5036 -101.7436 98° East 512 589 36,900  Level Albuquerque Center
Mon 05:59:03 PM 31.4481 -101.5567 109° East 506 582 36,900  Level Houston Center
Mon 06:00:05 PM 31.3867 -101.4094 116° Southeast 504 580 36,900  Level Houston Center
Mon 06:01:07 PM 31.3161 -101.2675 120° Southeast 504 580 36,900  Level Houston Center
Mon 06:02:09 PM 31.2428 -101.1283 122° Southeast 502 578 36,900 48 Level Houston Center
Mon 06:03:11 PM 31.1919 -100.9697 111° Southeast 509 586 37,000 48 Climbing Houston Center
Mon 06:04:13 PM 31.1522 -100.7800 104° East 500 575 37,000 -48 Level Houston Center
Mon 06:05:15 PM 31.1453 -100.6156 93° East 503 579 36,900 -48 Descending Houston Center
Mon 06:06:17 PM 31.1347 -100.4533 94° East 500 575 36,900  Level Houston Center
Mon 06:07:19 PM 31.1256 -100.2919 94° East 499 574 36,900 48 Level Houston Center
Mon 06:08:21 PM 31.1169 -100.1300 94° East 499 574 37,000  Climbing Houston Center
Mon 06:09:23 PM 31.1067 -99.9686 94° East 498 573 36,900 -48 Descending Houston Center
Mon 06:10:25 PM 31.0969 -99.8081 94° East 497 572 36,900  Level Houston Center
Mon 06:11:27 PM 31.0856 -99.6142 94° East 499 574 36,900  Level Houston Center
Mon 06:12:29 PM 31.0744 -99.4528 95° East 499 574 36,900  Level Houston Center
Mon 06:13:31 PM 31.0636 -99.2922 94° East 499 574 36,900 -242 Level Houston Center
Mon 06:14:33 PM 31.0531 -99.1283 94° East 497 572 36,400 -581 Descending Houston Center
Mon 06:15:35 PM 31.0417 -98.9681 95° East 493 567 35,700 -823 Descending Houston Center
Mon 06:16:37 PM 31.0317 -98.8122 94° East 481 554 34,700 -1,403 Descending Houston Center
Mon 06:17:39 PM 31.0200 -98.6589 95° East 471 542 32,800 -2,032 Descending Houston Center
Mon 06:18:41 PM 31.0083 -98.4825 94° East 466 536 30,500 -1,597 Descending Houston Center
Mon 06:19:43 PM 30.9972 -98.3333 95° East 459 528 29,500 -726 Descending Houston Center
Mon 06:20:45 PM 30.9844 -98.1914 96° East 440 506 29,000 -242 Descending Houston Center
Mon 06:21:47 PM 30.9753 -98.0497 94° East 434 499 29,000  Level Houston Center
Mon 06:22:49 PM 30.9644 -97.9072 95° East 438 504 29,000  Level Houston Center
Mon 06:23:50 PM 30.9531 -97.7653 95° East 437 503 29,000  Level Houston Center
Mon 06:24:52 PM 30.9417 -97.6242 95° East 434 499 29,000  Level Houston Center
Mon 06:25:54 PM 30.9283 -97.4603 95° East 435 501 29,000 -48 Level Houston Center
Mon 06:26:56 PM 30.9183 -97.3369 95° East 436 502 28,900 -484 Descending Houston Center
Mon 06:27:58 PM 30.8881 -97.1714 102° East 503 579 28,000 -871 Descending Houston Center
Mon 06:29:00 PM 30.8431 -97.0300 110° East 472 543 27,100 -919 Descending Houston Center
Mon 06:30:02 PM 30.7961 -96.8897 111° Southeast 465 535 26,100 -1,016 Descending Houston Center
Mon 06:31:04 PM 30.7419 -96.7272 111° Southeast 463 533 25,000 -919 Descending Houston Center
Mon 06:32:06 PM 30.6969 -96.5908 111° Southeast 452 520 24,200 -726 Descending Houston Center
Mon 06:33:08 PM 30.6525 -96.4528 110° East 453 521 23,500 -2,081 Descending Houston Center
Mon 06:34:10 PM 30.6083 -96.3217 111° Southeast 436 502 19,900 -3,649 Descending Houston Center
Mon 06:34:45 PM 30.5797 -96.2386 112° Southeast 418 481 17,600 -3,344 Descending Houston Center
Mon 06:35:11 PM 30.5658 -96.1964 111° Southeast 417 480 16,500 -3,321 Descending Houston Center
Mon 06:35:41 PM 30.5411 -96.1292 113° Southeast 391 450 14,500 -3,290 Descending Houston Center
Mon 06:36:13 PM 30.5272 -96.0797 108° East 388 447 13,100 -3,148 Descending Houston Center
Mon 06:36:42 PM 30.5042 -96.0169 113° Southeast 371 427 11,300 -2,226 Descending Houston Center
Mon 06:37:15 PM 30.4894 -95.9753 112° Southeast 372 428 10,800 -984 Descending Houston Center
Mon 06:37:43 PM 30.4678 -95.9097 111° Southeast 326 375 10,300 -871 Descending Houston Center
Mon 06:38:17 PM 30.4497 -95.8572 112° Southeast 327 376 9,900 -857 Descending Houston Center
Mon 06:38:39 PM 30.4219 -95.8425 155° Southeast 284 327 9,500 -1,161 Descending Houston Center
Mon 06:39:19 PM 30.3728 -95.8364 174° South 287 330 8,700 -1,355 Descending Houston Center
Mon 06:39:41 PM 30.3414 -95.8325 174° South 278 320 8,100 -1,258 Descending Houston Center
Mon 06:40:21 PM 30.2983 -95.8169 163° South 278 320 7,400 -1,279 Descending Houston Center
Mon 06:40:42 PM 30.2692 -95.7972 150° Southeast 271 312 6,800 -1,258 Descending Houston Center
Mon 06:41:23 PM 30.2344 -95.7733 149° Southeast 268 308 6,100 -885 Descending Houston Center
Mon 06:41:43 PM 30.2097 -95.7439 134° Southeast 273 314 5,900 -787 Descending Houston Center
Mon 06:42:24 PM 30.1878 -95.7064 124° Southeast 270 311 5,300 -1,254 Descending Houston Center
Mon 06:42:50 PM 30.1578 -95.6775 140° Southeast 264 304 4,500 -1,065 Descending Houston Center
Mon 06:43:26 PM 30.1322 -95.6517 139° Southeast 262 302 4,200 -643 Descending Houston Center
Mon 06:43:46 PM 30.1097 -95.6322 143° Southeast 218 251 3,900 -889 Descending Houston Center
Mon 06:44:47 PM 30.0653 -95.5822 136° Southeast 208 239 3,000 -519 Descending Houston Center
Mon 06:45:30 PM 30.0469 -95.5433 119° Southeast 211 243 3,000  Level Houston Center
Mon 06:45:48 PM 30.0392 -95.5247 116° Southeast 193 222 3,000  Level Houston Center

Login

Don't have an account? Register now (free) for customized features, flight alerts, and more!